createdAt,value
2023-03-13T00:01:33.315Z,6.18
2023-03-13T00:04:00.586Z,6.75
2023-03-13T00:06:32.384Z,5.80
2023-03-13T00:09:02.637Z,6.63
2023-03-13T00:11:29.980Z,6.70
2023-03-13T00:13:58.776Z,6.65
2023-03-13T00:16:26.202Z,6.43
2023-03-13T00:18:55.017Z,6.60
2023-03-13T00:21:24.752Z,7.80
2023-03-13T00:23:52.003Z,6.22
2023-03-13T00:26:21.543Z,6.38
2023-03-13T00:28:50.990Z,7.40
2023-03-13T00:31:21.295Z,7.65
2023-03-13T00:33:53.632Z,7.32
2023-03-13T00:36:24.906Z,6.82
2023-03-13T00:38:53.626Z,6.50
2023-03-13T00:41:26.300Z,7.50
2023-03-13T00:43:53.740Z,8.18
2023-03-13T00:46:23.234Z,7.47
2023-03-13T00:48:51.045Z,10.40
2023-03-13T00:51:20.139Z,10.90
2023-03-13T00:53:49.002Z,10.45
2023-03-13T00:56:18.695Z,10.30
2023-03-13T00:58:47.207Z,8.43
2023-03-13T01:01:21.090Z,8.60
2023-03-13T01:03:51.426Z,8.00
2023-03-13T01:06:21.145Z,9.55
2023-03-13T01:08:48.860Z,9.77
2023-03-13T01:11:18.570Z,9.82
2023-03-13T01:13:46.319Z,8.27
2023-03-13T01:16:15.895Z,8.85
2023-03-13T01:18:46.191Z,8.07
2023-03-13T01:21:14.447Z,8.63
2023-03-13T01:23:41.437Z,8.63
2023-03-13T01:26:10.364Z,8.27
2023-03-13T01:28:38.507Z,8.57
2023-03-13T01:31:20.418Z,8.85
2023-03-13T01:33:49.980Z,8.73
2023-03-13T01:36:19.108Z,8.30
2023-03-13T01:38:55.267Z,9.43
2023-03-13T01:41:22.988Z,9.57
2023-03-13T01:43:50.994Z,9.55
2023-03-13T01:46:24.849Z,10.10
2023-03-13T01:49:23.791Z,9.82
2023-03-13T01:52:03.989Z,10.27
2023-03-13T01:54:59.341Z,11.20
2023-03-13T01:57:51.093Z,10.10
2023-03-13T02:00:25.649Z,10.32
2023-03-13T02:02:56.190Z,10.05
2023-03-13T02:05:26.728Z,8.18
2023-03-13T02:08:04.856Z,10.98
2023-03-13T02:10:35.194Z,11.25
2023-03-13T02:13:03.210Z,11.75
2023-03-13T02:15:31.494Z,12.02
2023-03-13T02:17:58.598Z,12.30
2023-03-13T02:20:25.696Z,12.50
2023-03-13T02:22:58.645Z,10.30
2023-03-13T02:25:25.666Z,10.18
2023-03-13T02:28:07.143Z,10.80
2023-03-13T02:30:36.787Z,9.60
2023-03-13T02:33:04.770Z,10.25
2023-03-13T02:35:33.216Z,10.07
2023-03-13T02:38:06.414Z,10.70
2023-03-13T02:40:37.635Z,10.50
2023-03-13T02:43:31.112Z,10.60
2023-03-13T02:46:15.753Z,11.27
2023-03-13T02:48:48.839Z,12.20
2023-03-13T02:51:27.850Z,12.52
2023-03-13T02:54:00.814Z,13.30
2023-03-13T02:56:31.931Z,13.18
2023-03-13T02:58:59.043Z,14.13
2023-03-13T03:01:27.011Z,14.07
2023-03-13T03:03:54.198Z,14.75
2023-03-13T03:06:21.627Z,14.27
2023-03-13T03:08:49.680Z,14.43
2023-03-13T03:11:16.843Z,14.23
2023-03-13T03:13:46.779Z,16.33
2023-03-13T03:16:18.836Z,16.63
2023-03-13T03:18:45.918Z,17.13
2023-03-13T03:21:13.423Z,18.33
2023-03-13T03:23:40.372Z,21.95
2023-03-13T03:26:08.959Z,21.88
2023-03-13T03:28:36.161Z,22.92
2023-03-13T03:31:11.022Z,18.42
2023-03-13T03:33:39.567Z,20.38
2023-03-13T03:36:19.452Z,17.33
2023-03-13T03:38:47.714Z,18.65
2023-03-13T03:41:19.405Z,19.33
2023-03-13T03:43:47.595Z,18.60
2023-03-13T03:46:17.827Z,19.40
2023-03-13T03:48:45.105Z,20.27
2023-03-13T03:51:13.650Z,20.50
2023-03-13T03:53:43.152Z,19.92
2023-03-13T03:56:10.236Z,19.27
2023-03-13T03:58:42.790Z,16.75
2023-03-13T04:01:36.097Z,18.48
2023-03-13T04:04:04.541Z,18.73
2023-03-13T04:06:31.673Z,18.45
2023-03-13T04:08:59.438Z,19.15
2023-03-13T04:11:29.033Z,18.38
2023-03-13T04:13:56.654Z,19.80
2023-03-13T04:16:24.235Z,17.83
2023-03-13T04:18:53.482Z,18.35
2023-03-13T04:21:20.992Z,17.95
2023-03-13T04:23:52.689Z,15.68
2023-03-13T04:26:20.567Z,17.05
2023-03-13T04:28:50.676Z,16.67
2023-03-13T04:31:23.742Z,17.42
2023-03-13T04:34:06.109Z,15.23
2023-03-13T04:36:53.502Z,14.95
2023-03-13T04:39:25.398Z,14.88
2023-03-13T04:42:31.195Z,15.48
2023-03-13T04:44:58.147Z,13.88
2023-03-13T04:47:38.574Z,13.85
2023-03-13T04:50:27.866Z,12.68
2023-03-13T04:53:11.218Z,11.77
2023-03-13T04:56:04.953Z,10.80
2023-03-13T04:58:32.181Z,10.90
2023-03-13T05:01:28.186Z,9.90
2023-03-13T05:04:01.016Z,9.38
2023-03-13T05:06:45.654Z,9.45
2023-03-13T05:09:30.893Z,9.18
2023-03-13T05:12:16.384Z,10.05
2023-03-13T05:15:01.043Z,9.10
2023-03-13T05:17:48.253Z,8.43
2023-03-13T05:20:27.364Z,9.23
2023-03-13T05:23:13.158Z,9.05
2023-03-13T05:25:46.239Z,10.38
2023-03-13T05:28:16.283Z,10.90
2023-03-13T05:30:46.473Z,10.40
2023-03-13T05:33:25.392Z,9.95
2023-03-13T05:36:15.399Z,10.10
2023-03-13T05:38:49.844Z,10.20
2023-03-13T05:41:33.662Z,10.40
2023-03-13T05:44:00.590Z,10.35
2023-03-13T05:46:50.666Z,9.23
2023-03-13T05:49:36.333Z,9.23
2023-03-13T05:52:21.986Z,8.48
2023-03-13T05:54:59.361Z,10.43
2023-03-13T05:57:45.824Z,10.25
2023-03-13T06:00:46.008Z,9.82
2023-03-13T06:03:37.226Z,10.38
2023-03-13T06:06:04.759Z,11.82
2023-03-13T06:08:37.152Z,12.45
2023-03-13T06:11:04.250Z,14.95
2023-03-13T06:13:33.298Z,19.05
2023-03-13T06:16:06.379Z,18.67
2023-03-13T06:18:43.673Z,22.33
2023-03-13T06:21:10.958Z,22.80
2023-03-13T06:23:38.064Z,25.23
2023-03-13T06:26:05.521Z,25.40
2023-03-13T06:28:32.534Z,24.70
2023-03-13T06:31:04.460Z,25.05
2023-03-13T06:33:31.565Z,25.30
2023-03-13T06:36:00.725Z,25.27
2023-03-13T06:38:28.635Z,24.58
2023-03-13T06:40:56.112Z,24.85
2023-03-13T06:43:23.174Z,22.58
2023-03-13T06:45:50.675Z,21.83
2023-03-13T06:48:18.154Z,22.63
2023-03-13T06:50:45.530Z,23.60
2023-03-13T06:53:20.568Z,21.20
2023-03-13T06:55:49.172Z,18.52
2023-03-13T06:58:30.902Z,20.20
2023-03-13T07:01:00.109Z,19.67
2023-03-13T07:03:27.209Z,19.13
2023-03-13T07:05:57.697Z,18.13
2023-03-13T07:08:25.894Z,16.33
2023-03-13T07:10:54.053Z,14.05
2023-03-13T07:13:22.341Z,15.65
2023-03-13T07:15:49.811Z,15.15
2023-03-13T07:18:16.883Z,13.90
2023-03-13T07:20:44.543Z,13.90
2023-03-13T07:23:13.022Z,13.77
2023-03-13T07:25:40.059Z,10.73
2023-03-13T07:28:07.070Z,9.88
2023-03-13T07:30:34.069Z,10.75
2023-03-13T07:33:01.131Z,7.63
2023-03-13T07:35:28.231Z,8.15
2023-03-13T07:37:55.244Z,7.95
2023-03-13T07:40:22.211Z,8.45
2023-03-13T07:42:49.270Z,7.63
2023-03-13T07:45:16.349Z,9.27
2023-03-13T07:47:43.370Z,6.22
2023-03-13T07:50:11.053Z,7.93
2023-03-13T07:52:38.219Z,7.80
2023-03-13T07:55:05.598Z,6.32
2023-03-13T07:57:32.591Z,5.47
2023-03-13T07:59:59.601Z,6.25
2023-03-13T08:02:26.635Z,5.78
2023-03-13T08:04:53.965Z,4.78
2023-03-13T08:07:20.918Z,4.78
2023-03-13T08:09:47.972Z,6.20
2023-03-13T08:12:15.016Z,5.68
2023-03-13T08:14:42.249Z,5.50
2023-03-13T08:17:09.387Z,6.10
2023-03-13T08:19:36.480Z,5.93
2023-03-13T08:22:03.488Z,4.47
2023-03-13T08:24:30.592Z,4.97
2023-03-13T08:26:57.601Z,4.30
2023-03-13T08:29:24.629Z,2.38
2023-03-13T08:31:52.858Z,3.45
2023-03-13T08:34:20.154Z,3.80
2023-03-13T08:36:47.322Z,2.13
2023-03-13T08:39:19.705Z,2.25
2023-03-13T08:41:47.314Z,1.80
2023-03-13T08:44:16.855Z,1.80
2023-03-13T08:46:44.550Z,2.05
2023-03-13T08:49:12.316Z,1.63
2023-03-13T08:51:39.745Z,0.93
2023-03-13T08:54:08.216Z,1.35
2023-03-13T08:56:35.530Z,1.00
2023-03-13T08:59:05.142Z,1.50
2023-03-13T09:01:34.586Z,0.80
2023-03-13T09:04:04.543Z,0.90
2023-03-13T09:06:33.870Z,0.82
2023-03-13T09:09:01.493Z,1.15
2023-03-13T09:11:28.701Z,1.70
2023-03-13T09:13:56.494Z,0.90
2023-03-13T09:16:25.314Z,1.10
2023-03-13T09:18:53.120Z,0.73
2023-03-13T09:21:22.527Z,1.27
2023-03-13T09:23:50.200Z,1.40
2023-03-13T09:26:21.020Z,1.00
2023-03-13T09:28:50.655Z,1.27
2023-03-13T09:31:20.446Z,1.42
2023-03-13T09:33:49.013Z,1.20
2023-03-13T09:36:19.958Z,0.82
2023-03-13T09:38:48.334Z,1.20
2023-03-13T09:41:18.451Z,1.25
2023-03-13T09:43:48.597Z,1.63
2023-03-13T09:46:32.130Z,1.75
2023-03-13T09:49:02.988Z,1.73
2023-03-13T09:51:36.994Z,0.90
2023-03-13T09:54:17.860Z,1.00
2023-03-13T09:56:57.052Z,1.30
2023-03-13T09:59:43.837Z,1.02
2023-03-13T10:02:28.865Z,1.25
2023-03-13T10:05:23.960Z,1.30
2023-03-13T10:07:58.594Z,1.60
2023-03-13T10:10:44.753Z,1.80
2023-03-13T10:13:46.675Z,1.63
2023-03-13T10:16:29.513Z,1.30
2023-03-13T10:19:09.491Z,1.38
2023-03-13T10:21:37.271Z,2.13
2023-03-13T10:24:14.163Z,1.00
2023-03-13T10:26:41.330Z,0.80
2023-03-13T10:29:23.912Z,1.00
2023-03-13T10:32:01.462Z,1.48
2023-03-13T10:35:01.618Z,1.00
2023-03-13T10:37:31.865Z,2.65
2023-03-13T10:40:25.461Z,2.05
2023-03-13T10:43:00.156Z,1.05
2023-03-13T10:45:31.632Z,1.02
2023-03-13T10:48:10.615Z,1.15
2023-03-13T10:50:37.721Z,1.27
2023-03-13T10:53:20.178Z,0.82
2023-03-13T10:55:47.784Z,1.77
2023-03-13T10:58:33.599Z,1.15
2023-03-13T11:01:33.525Z,0.98
2023-03-13T11:04:39.111Z,1.10
2023-03-13T11:07:14.844Z,1.00
2023-03-13T11:09:41.892Z,1.42
2023-03-13T11:12:21.069Z,0.63
2023-03-13T11:14:48.220Z,1.02
2023-03-13T11:17:31.776Z,1.30
2023-03-13T11:20:03.169Z,1.02
2023-03-13T11:22:56.780Z,1.80
2023-03-13T11:25:43.606Z,0.43
2023-03-13T11:28:23.211Z,1.20
2023-03-13T11:31:11.626Z,0.80
2023-03-13T11:33:59.168Z,1.40
2023-03-13T11:36:45.258Z,0.68
2023-03-13T11:39:38.199Z,1.38
2023-03-13T11:42:15.755Z,0.90
2023-03-13T11:45:17.124Z,1.20
2023-03-13T11:47:44.115Z,0.90
2023-03-13T11:50:32.807Z,1.17
2023-03-13T11:53:18.011Z,1.20
2023-03-13T11:56:15.665Z,1.15
2023-03-13T11:58:56.636Z,1.23
2023-03-13T12:01:28.493Z,1.02
2023-03-13T12:04:35.635Z,1.75
2023-03-13T12:07:38.565Z,0.80
2023-03-13T12:10:10.123Z,0.90
2023-03-13T12:12:43.033Z,1.77
2023-03-13T12:15:24.965Z,1.30
2023-03-13T12:17:51.996Z,0.88
2023-03-13T12:20:44.622Z,1.52
2023-03-13T12:23:39.201Z,0.88
2023-03-13T12:26:19.749Z,1.70
2023-03-13T12:29:06.593Z,1.30
2023-03-13T12:31:52.437Z,1.23
2023-03-13T12:34:49.866Z,2.70
2023-03-13T12:38:10.534Z,0.95
2023-03-13T12:41:08.307Z,0.82
2023-03-13T12:43:39.401Z,1.27
2023-03-13T12:46:25.088Z,1.27
2023-03-13T12:49:13.483Z,1.08
2023-03-13T12:51:49.693Z,1.23
2023-03-13T12:54:38.383Z,1.42
2023-03-13T12:57:40.891Z,1.15
2023-03-13T13:00:21.845Z,1.13
2023-03-13T13:03:16.503Z,1.27
2023-03-13T13:06:15.576Z,1.27
2023-03-13T13:09:09.326Z,1.02
2023-03-13T13:11:39.335Z,1.50
2023-03-13T13:14:12.225Z,1.13
2023-03-13T13:16:44.142Z,1.33
2023-03-13T13:19:26.231Z,0.80
2023-03-13T13:22:30.430Z,1.35
2023-03-13T13:24:57.401Z,1.75
2023-03-13T13:27:34.600Z,1.00
2023-03-13T13:30:19.935Z,1.02
2023-03-13T13:32:47.997Z,1.30
2023-03-13T13:35:30.539Z,2.47
2023-03-13T13:38:30.421Z,1.30
2023-03-13T13:41:11.237Z,1.00
2023-03-13T13:43:46.743Z,0.95
2023-03-13T13:46:33.362Z,0.80
2023-03-13T13:49:06.813Z,0.95
2023-03-13T13:51:41.718Z,1.17
2023-03-13T13:54:43.107Z,1.38
2023-03-13T13:57:16.077Z,1.00
2023-03-13T13:59:45.030Z,1.27
2023-03-13T14:02:22.554Z,1.15
2023-03-13T14:04:52.505Z,1.23
2023-03-13T14:08:01.110Z,0.85
2023-03-13T14:10:43.070Z,1.50
2023-03-13T14:13:13.594Z,1.10
2023-03-13T14:15:53.081Z,1.05
2023-03-13T14:18:28.628Z,1.48
2023-03-13T14:21:01.964Z,1.40
2023-03-13T14:23:43.410Z,1.33
2023-03-13T14:26:23.545Z,1.25
2023-03-13T14:28:52.914Z,1.23
2023-03-13T14:31:33.418Z,1.48
2023-03-13T14:34:03.358Z,1.73
2023-03-13T14:36:30.597Z,1.65
2023-03-13T14:39:00.140Z,1.77
2023-03-13T14:41:42.522Z,1.40
2023-03-13T14:44:24.851Z,1.58
2023-03-13T14:46:58.312Z,1.67
2023-03-13T14:49:29.787Z,1.65
2023-03-13T14:52:02.220Z,1.67
2023-03-13T14:54:53.862Z,1.30
2023-03-13T14:57:27.152Z,1.75
2023-03-13T14:59:56.480Z,1.42
2023-03-13T15:02:27.231Z,1.48
2023-03-13T15:05:33.798Z,1.35
2023-03-13T15:08:00.903Z,1.70
2023-03-13T15:10:40.979Z,1.20
2023-03-13T15:13:20.332Z,1.45
2023-03-13T15:15:47.950Z,1.50
2023-03-13T15:18:27.052Z,1.67
2023-03-13T15:20:56.826Z,1.33
2023-03-13T15:23:24.018Z,2.05
2023-03-13T15:25:51.002Z,1.48
2023-03-13T15:28:23.097Z,1.45
2023-03-13T15:30:52.481Z,1.95
2023-03-13T15:33:21.975Z,1.50
2023-03-13T15:35:50.113Z,1.60
2023-03-13T15:38:20.741Z,1.48
2023-03-13T15:40:48.605Z,1.40
2023-03-13T15:43:16.800Z,2.60
2023-03-13T15:45:45.804Z,1.77
2023-03-13T15:48:17.130Z,1.95
2023-03-13T15:50:44.663Z,2.05
2023-03-13T15:53:32.814Z,1.65
2023-03-13T15:56:01.859Z,1.77
2023-03-13T15:58:30.497Z,1.70
2023-03-13T16:00:58.284Z,1.70
2023-03-13T16:03:29.084Z,1.98
2023-03-13T16:05:57.201Z,2.05
2023-03-13T16:08:35.367Z,1.95
2023-03-13T16:11:04.424Z,1.60
2023-03-13T16:13:31.682Z,1.92
2023-03-13T16:15:58.804Z,1.77
2023-03-13T16:18:26.081Z,1.50
2023-03-13T16:20:53.499Z,1.77
2023-03-13T16:23:20.661Z,1.83
2023-03-13T16:25:48.771Z,1.90
2023-03-13T16:28:16.437Z,1.67
2023-03-13T16:30:44.008Z,1.63
2023-03-13T16:33:11.840Z,2.15
2023-03-13T16:35:39.763Z,2.50
2023-03-13T16:38:08.744Z,1.63
2023-03-13T16:40:36.233Z,2.00
2023-03-13T16:43:03.554Z,3.03
2023-03-13T16:45:30.576Z,2.55
2023-03-13T16:47:57.597Z,2.25
2023-03-13T16:50:28.606Z,2.00
2023-03-13T16:52:55.761Z,2.50
2023-03-13T16:55:28.250Z,1.88
2023-03-13T16:57:59.281Z,2.20
2023-03-13T17:00:29.317Z,2.40
2023-03-13T17:02:57.682Z,2.47
2023-03-13T17:05:26.542Z,3.25
2023-03-13T17:07:53.496Z,2.38
2023-03-13T17:10:25.252Z,3.05
2023-03-13T17:12:52.318Z,2.60
2023-03-13T17:15:20.459Z,2.97
2023-03-13T17:17:52.161Z,2.72
2023-03-13T17:20:23.625Z,2.75
2023-03-13T17:22:50.623Z,2.80
2023-03-13T17:25:18.210Z,3.40
2023-03-13T17:27:47.609Z,2.97
2023-03-13T17:30:24.238Z,3.47
2023-03-13T17:32:51.788Z,3.90
2023-03-13T17:35:20.912Z,3.65
2023-03-13T17:37:49.042Z,3.83
2023-03-13T17:40:19.673Z,4.65
2023-03-13T17:42:47.012Z,4.38
2023-03-13T17:45:14.884Z,4.13
2023-03-13T17:47:42.496Z,5.80
2023-03-13T17:50:17.198Z,5.13
2023-03-13T17:52:44.641Z,6.05
2023-03-13T17:55:12.425Z,6.63
2023-03-13T17:57:40.476Z,8.57
2023-03-13T18:00:20.429Z,10.75
2023-03-13T18:02:47.974Z,11.90
2023-03-13T18:05:15.228Z,13.30
2023-03-13T18:07:43.946Z,11.23
2023-03-13T18:10:19.709Z,11.13
2023-03-13T18:12:47.209Z,12.70
2023-03-13T18:15:14.814Z,12.40
2023-03-13T18:17:41.847Z,10.80
2023-03-13T18:20:35.156Z,10.07
2023-03-13T18:23:02.233Z,10.25
2023-03-13T18:25:30.238Z,10.48
2023-03-13T18:27:57.682Z,10.38
2023-03-13T18:30:26.337Z,10.23
2023-03-13T18:32:54.065Z,9.55
2023-03-13T18:35:21.171Z,9.90
2023-03-13T18:37:49.004Z,10.77
2023-03-13T18:40:25.860Z,9.80
2023-03-13T18:42:53.161Z,12.05
2023-03-13T18:45:23.753Z,10.48
2023-03-13T18:47:51.105Z,11.07
2023-03-13T18:50:29.019Z,10.68
2023-03-13T18:52:58.568Z,10.30
2023-03-13T18:55:28.226Z,9.40
2023-03-13T18:57:56.158Z,9.85
2023-03-13T19:00:26.226Z,10.60
2023-03-13T19:02:53.276Z,10.98
2023-03-13T19:05:20.731Z,11.88
2023-03-13T19:07:47.734Z,11.77
2023-03-13T19:10:27.822Z,11.48
2023-03-13T19:12:56.628Z,11.00
2023-03-13T19:15:27.409Z,11.73
2023-03-13T19:17:56.362Z,11.48
2023-03-13T19:20:23.970Z,11.60
2023-03-13T19:22:51.158Z,12.35
2023-03-13T19:25:18.544Z,11.82
2023-03-13T19:27:47.786Z,10.05
2023-03-13T19:30:25.693Z,9.20
2023-03-13T19:32:52.837Z,10.10
2023-03-13T19:35:22.046Z,10.88
2023-03-13T19:37:49.660Z,9.73
2023-03-13T19:40:23.562Z,9.95
2023-03-13T19:42:50.581Z,9.50
2023-03-13T19:45:19.092Z,9.00
2023-03-13T19:47:46.189Z,8.95
2023-03-13T19:50:17.675Z,9.65
2023-03-13T19:52:45.614Z,9.15
2023-03-13T19:55:13.017Z,8.50
2023-03-13T19:57:39.990Z,8.98
2023-03-13T20:00:10.976Z,8.82
2023-03-13T20:02:39.181Z,9.52
2023-03-13T20:05:08.432Z,9.45
2023-03-13T20:07:36.089Z,9.10
2023-03-13T20:10:04.617Z,11.65
2023-03-13T20:12:31.819Z,11.45
2023-03-13T20:14:58.778Z,10.25
2023-03-13T20:17:26.077Z,9.65
2023-03-13T20:19:53.038Z,10.45
2023-03-13T20:22:20.091Z,9.38
2023-03-13T20:24:47.075Z,8.20
2023-03-13T20:27:14.942Z,7.32
2023-03-13T20:29:42.013Z,8.18
2023-03-13T20:32:09.010Z,8.23
2023-03-13T20:34:36.181Z,7.85
2023-03-13T20:37:04.039Z,8.82
2023-03-13T20:39:31.536Z,8.32
2023-03-13T20:42:02.592Z,8.43
2023-03-13T20:44:30.304Z,9.02
2023-03-13T20:46:57.282Z,10.63
2023-03-13T20:49:24.349Z,7.47
2023-03-13T20:51:51.392Z,7.13
2023-03-13T20:54:18.622Z,9.70
2023-03-13T20:56:45.598Z,8.90
2023-03-13T20:59:12.576Z,8.50
2023-03-13T21:01:39.706Z,9.05
2023-03-13T21:04:06.785Z,9.75
2023-03-13T21:06:34.258Z,9.30
2023-03-13T21:09:01.182Z,8.77
2023-03-13T21:11:28.248Z,9.80
2023-03-13T21:13:55.186Z,10.07
2023-03-13T21:16:22.993Z,9.25
2023-03-13T21:18:50.124Z,9.25
2023-03-13T21:21:19.664Z,8.68
2023-03-13T21:23:47.247Z,9.05
2023-03-13T21:26:14.981Z,8.68
2023-03-13T21:28:42.194Z,8.20
2023-03-13T21:31:17.453Z,8.77
2023-03-13T21:33:45.872Z,8.00
2023-03-13T21:36:14.812Z,7.03
2023-03-13T21:38:42.353Z,6.18
2023-03-13T21:41:17.194Z,7.32
2023-03-13T21:43:44.811Z,7.72
2023-03-13T21:46:17.388Z,8.68
2023-03-13T21:51:17.802Z,9.38
2023-03-13T21:53:44.876Z,9.85
2023-03-13T21:56:15.438Z,9.95
2023-03-13T21:58:43.955Z,11.27
2023-03-13T22:01:12.255Z,10.80
2023-03-13T22:03:39.400Z,9.10
2023-03-13T22:06:20.486Z,7.82
2023-03-13T22:08:49.393Z,8.07
2023-03-13T22:11:16.444Z,9.52
2023-03-13T22:13:44.034Z,9.02
2023-03-13T22:16:11.828Z,9.68
2023-03-13T22:18:39.752Z,10.13
2023-03-13T22:21:06.946Z,9.25
2023-03-13T22:23:34.124Z,9.10
2023-03-13T22:26:01.164Z,8.93
2023-03-13T22:28:28.370Z,9.50
2023-03-13T22:30:55.512Z,9.82
2023-03-13T22:33:22.498Z,10.13
2023-03-13T22:35:52.681Z,10.48
2023-03-13T22:38:20.742Z,10.10
2023-03-13T22:40:49.034Z,9.77
2023-03-13T22:43:16.112Z,10.07
2023-03-13T22:45:43.048Z,8.52
2023-03-13T22:48:09.993Z,9.45
2023-03-13T22:50:36.982Z,8.38
2023-03-13T22:53:03.968Z,9.32
2023-03-13T22:55:33.367Z,8.50
2023-03-13T22:58:00.966Z,8.32
2023-03-13T23:00:28.058Z,8.27
2023-03-13T23:02:55.102Z,8.13
2023-03-13T23:05:22.274Z,7.82
2023-03-13T23:07:50.898Z,7.47
2023-03-13T23:10:18.775Z,7.18
2023-03-13T23:12:45.768Z,6.13
2023-03-13T23:15:12.929Z,10.32
2023-03-13T23:17:39.944Z,11.18
2023-03-13T23:20:13.763Z,10.43
2023-03-13T23:22:46.335Z,10.23
2023-03-13T23:25:14.222Z,10.75
2023-03-13T23:27:42.263Z,10.68
2023-03-13T23:30:13.634Z,10.93
2023-03-13T23:32:43.681Z,10.25
2023-03-13T23:35:11.901Z,9.55
2023-03-13T23:37:39.709Z,8.68
2023-03-13T23:40:09.078Z,11.23
2023-03-13T23:42:36.603Z,10.02
2023-03-13T23:45:05.641Z,9.15
2023-03-13T23:47:33.518Z,7.57
2023-03-13T23:50:00.762Z,6.57
2023-03-13T23:52:27.828Z,6.50
2023-03-13T23:54:54.818Z,6.57
2023-03-13T23:57:21.832Z,5.30
2023-03-13T23:59:49.329Z,5.05
